createdAt,value
2023-05-19T00:02:39.961Z,14.19
2023-05-19T00:07:45.908Z,14.16
2023-05-19T00:12:50.028Z,14.09
2023-05-19T00:17:55.862Z,14.00
2023-05-19T00:22:58.625Z,13.90
2023-05-19T00:28:02.626Z,13.81
2023-05-19T00:33:05.590Z,13.71
2023-05-19T00:38:08.522Z,13.63
2023-05-19T00:43:11.435Z,13.51
2023-05-19T00:48:14.204Z,13.35
2023-05-19T00:53:19.088Z,13.23
2023-05-19T00:58:24.022Z,13.07
2023-05-19T01:03:26.920Z,13.02
2023-05-19T01:08:31.919Z,12.99
2023-05-19T01:13:36.791Z,12.95
2023-05-19T01:18:42.882Z,12.85
2023-05-19T01:24:40.970Z,12.87
2023-05-19T01:29:43.656Z,12.86
2023-05-19T01:34:49.520Z,12.88
2023-05-19T01:39:52.900Z,12.85
2023-05-19T01:44:56.583Z,12.94
2023-05-19T01:49:59.320Z,12.93
2023-05-19T01:55:02.481Z,13.00
2023-05-19T02:00:12.519Z,13.08
2023-05-19T02:05:30.958Z,13.19
2023-05-19T02:10:41.210Z,13.36
2023-05-19T02:15:46.112Z,13.47
2023-05-19T02:20:48.970Z,13.55
2023-05-19T02:25:51.845Z,13.73
2023-05-19T02:30:54.666Z,13.94
2023-05-19T02:35:58.332Z,14.23
2023-05-19T02:41:01.451Z,14.50
2023-05-19T02:46:04.423Z,14.77
2023-05-19T02:51:07.168Z,15.02
2023-05-19T02:56:09.869Z,15.36
2023-05-19T03:01:12.641Z,15.61
2023-05-19T03:06:15.904Z,15.86
2023-05-19T03:11:18.513Z,16.16
2023-05-19T03:16:22.316Z,16.50
2023-05-19T03:21:25.195Z,16.83
2023-05-19T03:26:29.627Z,17.14
2023-05-19T03:31:33.211Z,17.51
2023-05-19T03:36:41.829Z,17.93
2023-05-19T03:41:50.103Z,18.55
2023-05-19T03:46:52.812Z,19.34
2023-05-19T03:51:55.355Z,20.42
2023-05-19T03:57:25.605Z,21.33
2023-05-19T04:02:29.520Z,22.03
2023-05-19T04:07:32.544Z,22.55
2023-05-19T04:12:35.269Z,23.57
2023-05-19T04:17:38.563Z,24.08
2023-05-19T04:22:41.812Z,25.01
2023-05-19T04:27:45.131Z,25.57
2023-05-19T04:32:50.791Z,26.18
2023-05-19T04:37:56.490Z,26.46
2023-05-19T04:43:04.471Z,27.02
2023-05-19T04:48:09.070Z,27.39
2023-05-19T04:53:12.042Z,27.40
2023-05-19T04:58:15.138Z,28.10
2023-05-19T05:03:19.536Z,28.29
2023-05-19T05:08:26.002Z,29.32
2023-05-19T05:13:30.494Z,29.49
2023-05-19T05:18:35.023Z,29.51
2023-05-19T05:23:38.316Z,29.84
2023-05-19T05:28:42.537Z,30.26
2023-05-19T05:33:45.992Z,31.02
2023-05-19T05:38:50.226Z,31.93
2023-05-19T05:43:54.264Z,32.07
2023-05-19T05:48:57.285Z,32.45
2023-05-19T05:54:02.252Z,32.78
2023-05-19T05:59:11.358Z,32.57
2023-05-19T06:04:14.017Z,33.58
2023-05-19T06:09:18.036Z,33.94
2023-05-19T06:14:21.076Z,34.18
2023-05-19T06:19:43.720Z,34.43
2023-05-19T06:24:46.606Z,34.53
2023-05-19T06:29:50.329Z,35.41
2023-05-19T06:34:56.238Z,35.94
2023-05-19T06:39:59.193Z,36.42
2023-05-19T06:45:02.772Z,36.55
2023-05-19T06:50:08.083Z,36.17
2023-05-19T06:55:12.566Z,34.97
2023-05-19T07:00:18.774Z,35.61
2023-05-19T07:05:24.905Z,36.30
2023-05-19T07:10:32.257Z,35.95
2023-05-19T07:15:35.837Z,36.20
2023-05-19T07:20:39.998Z,35.82
2023-05-19T07:25:43.738Z,36.33
2023-05-19T07:30:46.612Z,36.08
2023-05-19T07:35:49.373Z,35.64
2023-05-19T07:40:52.235Z,36.56
2023-05-19T07:45:56.652Z,36.88
2023-05-19T07:50:59.732Z,36.50
2023-05-19T07:56:03.448Z,37.07
2023-05-19T08:01:06.769Z,36.91
2023-05-19T08:06:09.780Z,37.62
2023-05-19T08:11:12.725Z,37.53
2023-05-19T08:16:16.848Z,37.27
2023-05-19T08:21:19.808Z,36.95
2023-05-19T08:26:23.123Z,37.21
2023-05-19T08:31:25.994Z,37.25
2023-05-19T08:36:29.823Z,36.87
2023-05-19T08:41:33.246Z,36.44
2023-05-19T08:46:37.538Z,36.48
2023-05-19T08:51:45.590Z,35.36
2023-05-19T08:56:48.928Z,35.65
2023-05-19T09:01:52.416Z,35.84
2023-05-19T09:06:56.008Z,35.44
2023-05-19T09:11:59.130Z,36.03
2023-05-19T09:17:03.990Z,36.24
2023-05-19T09:22:06.917Z,36.63
2023-05-19T09:27:09.688Z,36.21
2023-05-19T09:32:12.565Z,36.04
2023-05-19T09:37:15.508Z,35.95
2023-05-19T09:42:26.554Z,36.29
2023-05-19T09:47:38.750Z,35.21
2023-05-19T09:52:45.258Z,35.65
2023-05-19T09:57:48.086Z,35.87
2023-05-19T10:02:51.307Z,35.94
2023-05-19T10:07:55.631Z,35.75
2023-05-19T10:13:00.540Z,35.68
2023-05-19T10:18:03.925Z,35.70
2023-05-19T10:23:06.937Z,35.67
2023-05-19T10:28:14.197Z,35.37
2023-05-19T10:33:20.003Z,35.55
2023-05-19T10:38:56.683Z,35.04
2023-05-19T10:44:11.394Z,34.41
2023-05-19T10:49:23.567Z,34.42
2023-05-19T10:54:43.756Z,34.25
2023-05-19T10:59:47.662Z,32.97
2023-05-19T11:04:54.441Z,32.05
2023-05-19T11:09:57.657Z,31.64
2023-05-19T11:15:00.444Z,31.27
2023-05-19T11:20:05.400Z,30.72
2023-05-19T11:25:09.465Z,29.93
2023-05-19T11:30:16.952Z,28.97
2023-05-19T11:35:21.725Z,28.59
2023-05-19T11:40:26.012Z,28.49
2023-05-19T11:45:32.097Z,28.47
2023-05-19T11:50:37.454Z,28.36
2023-05-19T11:55:47.837Z,28.33
2023-05-19T12:00:51.903Z,28.15
2023-05-19T12:05:55.061Z,27.95
2023-05-19T12:10:58.030Z,27.74
2023-05-19T12:16:02.112Z,27.60
2023-05-19T12:21:08.523Z,27.58
2023-05-19T12:26:16.328Z,27.62
2023-05-19T12:31:27.288Z,27.26
2023-05-19T12:36:34.998Z,27.15
2023-05-19T12:41:47.301Z,26.94
2023-05-19T12:46:56.038Z,26.82
2023-05-19T12:52:09.205Z,26.80
2023-05-19T12:57:20.230Z,26.94
2023-05-19T13:02:33.029Z,26.74
2023-05-19T13:07:37.884Z,26.57
2023-05-19T13:12:41.953Z,26.54
2023-05-19T13:17:46.659Z,26.49
2023-05-19T13:22:51.649Z,26.39
2023-05-19T13:27:57.147Z,26.16
2023-05-19T13:33:00.079Z,26.08
2023-05-19T13:38:11.016Z,26.00
2023-05-19T13:43:16.341Z,25.86
2023-05-19T13:48:22.627Z,25.76
2023-05-19T13:53:27.312Z,25.68
2023-05-19T13:58:30.919Z,25.62
2023-05-19T14:03:36.356Z,25.58
2023-05-19T14:08:40.318Z,25.47
2023-05-19T14:13:43.417Z,25.35
2023-05-19T14:18:49.733Z,25.31
2023-05-19T14:23:53.406Z,25.24
2023-05-19T14:28:57.677Z,25.19
2023-05-19T14:34:00.834Z,25.13
2023-05-19T14:39:04.093Z,24.98
2023-05-19T14:44:06.883Z,24.94
2023-05-19T14:49:10.126Z,24.86
2023-05-19T14:54:12.991Z,24.74
2023-05-19T14:59:16.289Z,24.71
2023-05-19T15:04:19.737Z,24.55
2023-05-19T15:09:23.706Z,24.40
2023-05-19T15:14:27.826Z,24.30
2023-05-19T15:19:31.701Z,24.24
2023-05-19T15:24:35.181Z,24.20
2023-05-19T15:29:39.274Z,23.98
2023-05-19T15:34:43.726Z,23.81
2023-05-19T15:39:48.716Z,23.60
2023-05-19T15:44:53.142Z,23.47
2023-05-19T15:49:57.027Z,23.34
2023-05-19T15:55:01.268Z,23.23
2023-05-19T16:00:05.799Z,23.09
2023-05-19T16:05:09.283Z,22.87
2023-05-19T16:10:12.119Z,22.64
2023-05-19T16:15:15.310Z,22.37
2023-05-19T16:20:18.324Z,22.18
2023-05-19T16:25:21.296Z,21.95
2023-05-19T16:30:26.482Z,21.71
2023-05-19T16:35:33.218Z,21.45
2023-05-19T16:40:38.847Z,21.22
2023-05-19T16:45:44.936Z,21.00
2023-05-19T16:50:52.378Z,20.83
2023-05-19T16:55:59.505Z,20.59
2023-05-19T17:01:03.721Z,20.45
2023-05-19T17:06:07.066Z,20.28
2023-05-19T17:11:09.957Z,20.20
2023-05-19T17:16:13.302Z,19.95
2023-05-19T17:21:34.821Z,19.75
2023-05-19T17:26:56.365Z,19.52
2023-05-19T17:31:59.307Z,19.39
2023-05-19T17:37:03.580Z,19.20
2023-05-19T17:42:06.579Z,19.00
2023-05-19T17:47:09.511Z,18.78
2023-05-19T17:52:12.488Z,18.49
2023-05-19T17:57:18.126Z,18.45
2023-05-19T18:02:21.034Z,18.55
2023-05-19T18:07:26.706Z,18.48
2023-05-19T18:12:29.459Z,18.38
2023-05-19T18:17:32.353Z,18.23
2023-05-19T18:22:35.190Z,18.15
2023-05-19T18:27:38.317Z,18.02
2023-05-19T18:32:41.862Z,17.86
2023-05-19T18:37:44.548Z,17.70
2023-05-19T18:42:48.080Z,17.42
2023-05-19T18:47:50.876Z,17.23
2023-05-19T18:52:53.896Z,17.24
2023-05-19T18:57:56.605Z,17.13
2023-05-19T19:02:59.524Z,16.96
2023-05-19T19:08:05.956Z,16.73
2023-05-19T19:13:08.762Z,16.48
2023-05-19T19:18:12.336Z,16.46
2023-05-19T19:23:15.748Z,16.34
2023-05-19T19:28:18.900Z,16.21
2023-05-19T19:33:21.702Z,16.12
2023-05-19T19:38:24.374Z,16.05
2023-05-19T19:43:27.397Z,16.05
2023-05-19T19:48:31.089Z,16.00
2023-05-19T19:53:33.827Z,16.02
2023-05-19T19:58:36.521Z,16.08
2023-05-19T20:03:39.346Z,16.32
2023-05-19T20:08:42.180Z,16.54
2023-05-19T20:13:45.179Z,16.58
2023-05-19T20:18:48.170Z,16.72
2023-05-19T20:23:51.562Z,16.76
2023-05-19T20:28:54.407Z,16.66
2023-05-19T20:33:58.164Z,16.60
2023-05-19T20:39:03.004Z,16.49
2023-05-19T20:44:06.781Z,16.36
2023-05-19T20:49:09.617Z,16.34
2023-05-19T20:54:12.391Z,16.38
2023-05-19T20:59:15.392Z,16.34
2023-05-19T21:04:18.322Z,16.30
2023-05-19T21:09:21.827Z,16.38
2023-05-19T21:14:25.653Z,16.41
2023-05-19T21:19:28.838Z,16.51
2023-05-19T21:24:31.712Z,16.38
2023-05-19T21:29:34.469Z,16.54
2023-05-19T21:34:37.339Z,16.63
2023-05-19T21:39:40.111Z,16.41
2023-05-19T21:44:42.936Z,16.18
2023-05-19T21:49:45.777Z,15.98
2023-05-19T21:54:48.447Z,15.81
2023-05-19T21:59:51.333Z,15.64
2023-05-19T22:04:54.046Z,15.48
2023-05-19T22:09:56.821Z,15.26
2023-05-19T22:15:00.793Z,15.04
2023-05-19T22:20:03.650Z,14.94
2023-05-19T22:25:07.448Z,14.78
2023-05-19T22:30:10.283Z,14.64
2023-05-19T22:35:13.169Z,14.44
2023-05-19T22:40:16.228Z,14.30
2023-05-19T22:45:19.222Z,14.16
2023-05-19T22:50:22.564Z,14.04
2023-05-19T22:55:25.302Z,13.89
2023-05-19T23:00:28.080Z,13.77
2023-05-19T23:05:30.986Z,13.64
2023-05-19T23:10:33.818Z,13.56
2023-05-19T23:15:36.640Z,13.50
2023-05-19T23:20:39.357Z,13.40
2023-05-19T23:25:42.065Z,13.31
2023-05-19T23:30:44.857Z,13.28
2023-05-19T23:35:48.188Z,13.21
2023-05-19T23:40:51.398Z,13.03
2023-05-19T23:45:54.227Z,12.96
2023-05-19T23:50:58.896Z,12.95
2023-05-19T23:56:02.089Z,12.96
